Terminal Aerodrome Forecast
Issued by NWS

Home | Current Version | Previous Version | Text Only | Print | Product List | Glossary On
Versions: 1 2 3 4 5 6 7 8 9 10 11 12 13
800
FTPA31 PHFO 142336
TAFHKO
TAF
PHKO 142336Z 1500/1524 23008KT P6SM BKN050
     FM150600 VRB03KT P6SM SCT025 SCT050
     FM151200 07005KT P6SM SCT025
     FM152000 25008KT P6SM SCT025 SCT050
      AMD NOT SKED=

USA.gov is the U.S. government's official web portal to all federal, state and local government web resources and services.